Terminal Aerodrome Forecast
Issued by NWS

Home | Current Version | Previous Version | Text Only | Print | Product List | Glossary On
Versions: 1 2 3 4 5 6 7 8 9 10 11 12 13 14 15 16 17 18 19 20
000
FTUS44 KMAF 041723
TAFFST
TAF
KFST 041723Z 0418/0518 35010KT P6SM OVC007
      TEMPO 0418/0422 3SM -RA BR OVC004
     FM050600 30006KT 3SM RA BR OVC004=

USA.gov is the U.S. government's official web portal to all federal, state and local government web resources and services.